sensor_id;sensor_type;location;lat;lon;timestamp;temperature;humidity
18388;DHT22;9320;50.256;19.026;2023-05-20T00:00:34;11.70;99.90
18388;DHT22;9320;50.256;19.026;2023-05-20T00:03:02;11.70;99.90
18388;DHT22;9320;50.256;19.026;2023-05-20T00:05:31;11.70;99.90
18388;DHT22;9320;50.256;19.026;2023-05-20T00:07:59;11.80;99.90
18388;DHT22;9320;50.256;19.026;2023-05-20T00:10:30;11.80;99.90
18388;DHT22;9320;50.256;19.026;2023-05-20T00:12:58;11.80;99.90
18388;DHT22;9320;50.256;19.026;2023-05-20T00:15:26;11.80;99.90
18388;DHT22;9320;50.256;19.026;2023-05-20T00:17:56;11.80;99.90
18388;DHT22;9320;50.256;19.026;2023-05-20T00:20:24;11.90;99.90
18388;DHT22;9320;50.256;19.026;2023-05-20T00:22:52;11.90;99.90
18388;DHT22;9320;50.256;19.026;2023-05-20T00:25:20;11.90;99.90
18388;DHT22;9320;50.256;19.026;2023-05-20T00:27:48;11.90;99.90
18388;DHT22;9320;50.256;19.026;2023-05-20T00:30:16;11.90;99.90
18388;DHT22;9320;50.256;19.026;2023-05-20T00:32:44;11.80;99.90
18388;DHT22;9320;50.256;19.026;2023-05-20T00:35:13;11.90;99.90
18388;DHT22;9320;50.256;19.026;2023-05-20T00:37:42;11.80;99.90
18388;DHT22;9320;50.256;19.026;2023-05-20T00:40:10;11.80;99.90
18388;DHT22;9320;50.256;19.026;2023-05-20T00:42:41;11.90;99.90
18388;DHT22;9320;50.256;19.026;2023-05-20T00:45:10;11.80;99.90
18388;DHT22;9320;50.256;19.026;2023-05-20T00:47:38;11.80;99.90
18388;DHT22;9320;50.256;19.026;2023-05-20T00:50:07;11.90;99.90
18388;DHT22;9320;50.256;19.026;2023-05-20T00:52:37;11.90;99.90
18388;DHT22;9320;50.256;19.026;2023-05-20T00:55:07;11.90;99.90
18388;DHT22;9320;50.256;19.026;2023-05-20T00:57:36;11.90;99.90
18388;DHT22;9320;50.256;19.026;2023-05-20T01:00:05;11.80;99.90
18388;DHT22;9320;50.256;19.026;2023-05-20T01:02:34;11.70;99.90
18388;DHT22;9320;50.256;19.026;2023-05-20T01:05:03;11.80;99.90
18388;DHT22;9320;50.256;19.026;2023-05-20T01:07:32;11.70;99.90
18388;DHT22;9320;50.256;19.026;2023-05-20T01:10:01;11.70;99.90
18388;DHT22;9320;50.256;19.026;2023-05-20T01:12:33;11.80;99.90
18388;DHT22;9320;50.256;19.026;2023-05-20T01:15:06;11.80;99.90
18388;DHT22;9320;50.256;19.026;2023-05-20T01:17:38;11.90;99.90
18388;DHT22;9320;50.256;19.026;2023-05-20T01:20:08;12.00;99.90
18388;DHT22;9320;50.256;19.026;2023-05-20T01:22:38;12.10;99.90
18388;DHT22;9320;50.256;19.026;2023-05-20T01:25:13;12.10;99.90
18388;DHT22;9320;50.256;19.026;2023-05-20T01:27:41;12.00;99.90
18388;DHT22;9320;50.256;19.026;2023-05-20T01:30:10;11.80;99.90
18388;DHT22;9320;50.256;19.026;2023-05-20T01:32:42;11.80;99.90
18388;DHT22;9320;50.256;19.026;2023-05-20T01:35:12;11.80;99.90
18388;DHT22;9320;50.256;19.026;2023-05-20T01:37:42;11.80;99.90
18388;DHT22;9320;50.256;19.026;2023-05-20T01:40:12;11.90;99.90
18388;DHT22;9320;50.256;19.026;2023-05-20T01:42:42;11.80;99.90
18388;DHT22;9320;50.256;19.026;2023-05-20T01:45:11;11.80;99.90
18388;DHT22;9320;50.256;19.026;2023-05-20T01:47:39;11.80;99.90
18388;DHT22;9320;50.256;19.026;2023-05-20T01:50:08;11.80;99.90
18388;DHT22;9320;50.256;19.026;2023-05-20T01:52:36;11.80;99.90
18388;DHT22;9320;50.256;19.026;2023-05-20T01:55:06;11.90;99.90
18388;DHT22;9320;50.256;19.026;2023-05-20T01:57:34;11.90;99.90
18388;DHT22;9320;50.256;19.026;2023-05-20T02:00:03;11.90;99.90
18388;DHT22;9320;50.256;19.026;2023-05-20T02:02:31;11.90;99.90
18388;DHT22;9320;50.256;19.026;2023-05-20T02:05:00;11.80;99.90
18388;DHT22;9320;50.256;19.026;2023-05-20T02:07:28;11.90;99.90
18388;DHT22;9320;50.256;19.026;2023-05-20T02:09:56;11.90;99.90
18388;DHT22;9320;50.256;19.026;2023-05-20T02:12:25;11.80;99.90
18388;DHT22;9320;50.256;19.026;2023-05-20T02:14:53;11.80;99.90
18388;DHT22;9320;50.256;19.026;2023-05-20T02:17:21;11.80;99.90
18388;DHT22;9320;50.256;19.026;2023-05-20T02:19:49;11.80;99.90
18388;DHT22;9320;50.256;19.026;2023-05-20T02:22:18;11.80;99.90
18388;DHT22;9320;50.256;19.026;2023-05-20T02:24:46;11.70;99.90
18388;DHT22;9320;50.256;19.026;2023-05-20T02:27:14;11.70;99.90
18388;DHT22;9320;50.256;19.026;2023-05-20T02:29:43;11.70;99.90
18388;DHT22;9320;50.256;19.026;2023-05-20T02:32:12;11.60;99.90
18388;DHT22;9320;50.256;19.026;2023-05-20T02:34:40;11.70;99.90
18388;DHT22;9320;50.256;19.026;2023-05-20T02:37:08;11.80;99.90
18388;DHT22;9320;50.256;19.026;2023-05-20T02:39:36;11.80;99.90
18388;DHT22;9320;50.256;19.026;2023-05-20T02:42:04;11.70;99.90
18388;DHT22;9320;50.256;19.026;2023-05-20T02:44:32;11.60;99.90
18388;DHT22;9320;50.256;19.026;2023-05-20T02:47:01;11.70;99.90
18388;DHT22;9320;50.256;19.026;2023-05-20T02:49:29;11.70;99.90
18388;DHT22;9320;50.256;19.026;2023-05-20T02:51:57;11.70;99.90
18388;DHT22;9320;50.256;19.026;2023-05-20T02:54:25;11.80;99.90
18388;DHT22;9320;50.256;19.026;2023-05-20T02:56:53;12.00;99.90
18388;DHT22;9320;50.256;19.026;2023-05-20T02:59:21;11.90;99.90
18388;DHT22;9320;50.256;19.026;2023-05-20T03:01:49;11.90;99.90
18388;DHT22;9320;50.256;19.026;2023-05-20T03:04:19;11.90;99.90
18388;DHT22;9320;50.256;19.026;2023-05-20T03:06:47;11.90;99.90
18388;DHT22;9320;50.256;19.026;2023-05-20T03:09:17;12.00;99.90
18388;DHT22;9320;50.256;19.026;2023-05-20T03:11:47;11.80;99.90
18388;DHT22;9320;50.256;19.026;2023-05-20T03:14:15;11.70;99.90
18388;DHT22;9320;50.256;19.026;2023-05-20T03:16:43;11.70;99.90
18388;DHT22;9320;50.256;19.026;2023-05-20T03:19:12;11.60;99.90
18388;DHT22;9320;50.256;19.026;2023-05-20T03:21:41;11.70;99.90
18388;DHT22;9320;50.256;19.026;2023-05-20T03:24:09;11.60;99.90
18388;DHT22;9320;50.256;19.026;2023-05-20T03:26:38;11.70;99.90
18388;DHT22;9320;50.256;19.026;2023-05-20T03:29:08;11.80;99.90
18388;DHT22;9320;50.256;19.026;2023-05-20T03:31:37;11.90;99.90
18388;DHT22;9320;50.256;19.026;2023-05-20T03:34:06;12.00;99.90
18388;DHT22;9320;50.256;19.026;2023-05-20T03:36:34;12.00;99.90
18388;DHT22;9320;50.256;19.026;2023-05-20T03:39:04;12.00;99.90
18388;DHT22;9320;50.256;19.026;2023-05-20T03:41:32;12.00;99.90
18388;DHT22;9320;50.256;19.026;2023-05-20T03:44:00;12.00;99.90
18388;DHT22;9320;50.256;19.026;2023-05-20T03:46:28;12.00;99.90
18388;DHT22;9320;50.256;19.026;2023-05-20T03:48:58;12.00;99.90
18388;DHT22;9320;50.256;19.026;2023-05-20T03:51:27;12.00;99.90
18388;DHT22;9320;50.256;19.026;2023-05-20T03:53:55;12.20;99.90
18388;DHT22;9320;50.256;19.026;2023-05-20T03:56:24;12.20;99.90
18388;DHT22;9320;50.256;19.026;2023-05-20T03:58:53;12.10;99.90
18388;DHT22;9320;50.256;19.026;2023-05-20T04:01:21;12.10;99.90
18388;DHT22;9320;50.256;19.026;2023-05-20T04:03:51;11.90;99.90
18388;DHT22;9320;50.256;19.026;2023-05-20T04:06:19;11.90;99.90
18388;DHT22;9320;50.256;19.026;2023-05-20T04:08:49;12.00;99.90
18388;DHT22;9320;50.256;19.026;2023-05-20T04:11:17;12.00;99.90
18388;DHT22;9320;50.256;19.026;2023-05-20T04:13:46;12.10;99.90
18388;DHT22;9320;50.256;19.026;2023-05-20T04:16:14;12.10;99.90
18388;DHT22;9320;50.256;19.026;2023-05-20T04:18:43;12.10;99.90
18388;DHT22;9320;50.256;19.026;2023-05-20T04:21:11;12.20;99.90
18388;DHT22;9320;50.256;19.026;2023-05-20T04:23:40;12.20;99.90
18388;DHT22;9320;50.256;19.026;2023-05-20T04:26:08;12.20;99.90
18388;DHT22;9320;50.256;19.026;2023-05-20T04:28:36;12.40;99.90
18388;DHT22;9320;50.256;19.026;2023-05-20T04:31:06;12.20;99.90
18388;DHT22;9320;50.256;19.026;2023-05-20T04:33:35;12.20;99.90
18388;DHT22;9320;50.256;19.026;2023-05-20T04:36:06;12.30;99.90
18388;DHT22;9320;50.256;19.026;2023-05-20T04:38:34;12.50;99.90
18388;DHT22;9320;50.256;19.026;2023-05-20T04:41:03;12.50;99.90
18388;DHT22;9320;50.256;19.026;2023-05-20T04:43:31;12.50;99.90
18388;DHT22;9320;50.256;19.026;2023-05-20T04:45:59;12.50;99.90
18388;DHT22;9320;50.256;19.026;2023-05-20T04:48:33;12.50;99.90
18388;DHT22;9320;50.256;19.026;2023-05-20T04:51:01;12.50;99.90
18388;DHT22;9320;50.256;19.026;2023-05-20T04:53:29;12.50;99.90
18388;DHT22;9320;50.256;19.026;2023-05-20T04:55:57;12.60;99.90
18388;DHT22;9320;50.256;19.026;2023-05-20T04:58:25;12.70;99.90
18388;DHT22;9320;50.256;19.026;2023-05-20T05:00:55;12.70;99.90
18388;DHT22;9320;50.256;19.026;2023-05-20T05:03:23;12.80;99.90
18388;DHT22;9320;50.256;19.026;2023-05-20T05:05:56;12.90;99.90
18388;DHT22;9320;50.256;19.026;2023-05-20T05:08:24;12.90;99.90
18388;DHT22;9320;50.256;19.026;2023-05-20T05:10:52;12.90;99.90
18388;DHT22;9320;50.256;19.026;2023-05-20T05:13:20;12.90;99.90
18388;DHT22;9320;50.256;19.026;2023-05-20T05:15:57;13.00;99.90
18388;DHT22;9320;50.256;19.026;2023-05-20T05:18:25;13.00;99.90
18388;DHT22;9320;50.256;19.026;2023-05-20T05:21:00;13.00;99.90
18388;DHT22;9320;50.256;19.026;2023-05-20T05:23:28;13.20;99.90
18388;DHT22;9320;50.256;19.026;2023-05-20T05:25:56;13.20;99.90
18388;DHT22;9320;50.256;19.026;2023-05-20T05:28:24;13.30;99.90
18388;DHT22;9320;50.256;19.026;2023-05-20T05:30:53;13.30;99.90
18388;DHT22;9320;50.256;19.026;2023-05-20T05:33:21;13.20;99.90
18388;DHT22;9320;50.256;19.026;2023-05-20T05:35:50;13.30;99.90
18388;DHT22;9320;50.256;19.026;2023-05-20T05:38:19;13.30;99.90
18388;DHT22;9320;50.256;19.026;2023-05-20T05:40:47;13.40;99.90
18388;DHT22;9320;50.256;19.026;2023-05-20T05:43:15;13.30;99.90
18388;DHT22;9320;50.256;19.026;2023-05-20T05:45:43;13.40;99.90
18388;DHT22;9320;50.256;19.026;2023-05-20T05:48:11;13.40;99.90
18388;DHT22;9320;50.256;19.026;2023-05-20T05:50:43;13.40;99.90
18388;DHT22;9320;50.256;19.026;2023-05-20T05:53:11;13.40;99.90
18388;DHT22;9320;50.256;19.026;2023-05-20T05:55:41;13.30;99.90
18388;DHT22;9320;50.256;19.026;2023-05-20T05:58:09;13.50;99.90
18388;DHT22;9320;50.256;19.026;2023-05-20T06:00:37;13.50;99.90
18388;DHT22;9320;50.256;19.026;2023-05-20T06:03:05;13.50;99.90
18388;DHT22;9320;50.256;19.026;2023-05-20T06:05:33;13.70;99.90
18388;DHT22;9320;50.256;19.026;2023-05-20T06:08:02;13.60;99.90
18388;DHT22;9320;50.256;19.026;2023-05-20T06:10:30;13.50;99.90
18388;DHT22;9320;50.256;19.026;2023-05-20T06:13:00;13.50;99.90
18388;DHT22;9320;50.256;19.026;2023-05-20T06:15:28;13.60;99.90
18388;DHT22;9320;50.256;19.026;2023-05-20T06:17:56;13.70;99.90
18388;DHT22;9320;50.256;19.026;2023-05-20T06:20:24;13.70;99.90
18388;DHT22;9320;50.256;19.026;2023-05-20T06:22:52;13.70;99.90
18388;DHT22;9320;50.256;19.026;2023-05-20T06:25:20;13.80;99.90
18388;DHT22;9320;50.256;19.026;2023-05-20T06:27:48;13.90;99.90
18388;DHT22;9320;50.256;19.026;2023-05-20T06:30:18;14.00;99.90
18388;DHT22;9320;50.256;19.026;2023-05-20T06:32:46;14.10;99.90
18388;DHT22;9320;50.256;19.026;2023-05-20T06:35:14;14.30;99.90
18388;DHT22;9320;50.256;19.026;2023-05-20T06:37:42;14.60;99.90
18388;DHT22;9320;50.256;19.026;2023-05-20T06:40:11;14.80;99.90
18388;DHT22;9320;50.256;19.026;2023-05-20T06:42:39;14.80;99.90
18388;DHT22;9320;50.256;19.026;2023-05-20T06:45:08;15.00;99.90
18388;DHT22;9320;50.256;19.026;2023-05-20T06:47:38;15.10;99.90
18388;DHT22;9320;50.256;19.026;2023-05-20T06:50:07;15.20;99.90
18388;DHT22;9320;50.256;19.026;2023-05-20T06:52:35;15.10;99.90
18388;DHT22;9320;50.256;19.026;2023-05-20T06:55:04;15.10;99.90
18388;DHT22;9320;50.256;19.026;2023-05-20T06:57:32;15.20;99.90
18388;DHT22;9320;50.256;19.026;2023-05-20T07:00:00;15.20;99.90
18388;DHT22;9320;50.256;19.026;2023-05-20T07:02:29;15.30;99.90
18388;DHT22;9320;50.256;19.026;2023-05-20T07:04:58;15.40;99.90
18388;DHT22;9320;50.256;19.026;2023-05-20T07:07:27;15.50;99.90
18388;DHT22;9320;50.256;19.026;2023-05-20T07:09:55;15.60;99.90
18388;DHT22;9320;50.256;19.026;2023-05-20T07:12:23;15.60;99.90
18388;DHT22;9320;50.256;19.026;2023-05-20T07:14:51;15.60;99.90
18388;DHT22;9320;50.256;19.026;2023-05-20T07:17:19;15.60;99.90
18388;DHT22;9320;50.256;19.026;2023-05-20T07:19:47;15.70;99.90
18388;DHT22;9320;50.256;19.026;2023-05-20T07:22:16;15.80;99.90
18388;DHT22;9320;50.256;19.026;2023-05-20T07:24:44;16.00;99.90
18388;DHT22;9320;50.256;19.026;2023-05-20T07:27:12;16.00;99.90
18388;DHT22;9320;50.256;19.026;2023-05-20T07:29:40;16.00;99.90
18388;DHT22;9320;50.256;19.026;2023-05-20T07:32:08;16.00;99.90
18388;DHT22;9320;50.256;19.026;2023-05-20T07:34:37;15.90;99.90
18388;DHT22;9320;50.256;19.026;2023-05-20T07:37:05;16.00;99.90
18388;DHT22;9320;50.256;19.026;2023-05-20T07:39:34;16.10;99.90
18388;DHT22;9320;50.256;19.026;2023-05-20T07:42:03;16.20;99.90
18388;DHT22;9320;50.256;19.026;2023-05-20T07:44:31;16.40;99.90
18388;DHT22;9320;50.256;19.026;2023-05-20T07:46:59;16.30;99.90
18388;DHT22;9320;50.256;19.026;2023-05-20T07:49:27;16.40;99.90
18388;DHT22;9320;50.256;19.026;2023-05-20T07:51:55;16.60;99.90
18388;DHT22;9320;50.256;19.026;2023-05-20T07:54:23;16.80;99.90
18388;DHT22;9320;50.256;19.026;2023-05-20T07:56:53;16.90;99.90
18388;DHT22;9320;50.256;19.026;2023-05-20T07:59:21;17.10;99.90
18388;DHT22;9320;50.256;19.026;2023-05-20T08:01:49;17.00;99.90
18388;DHT22;9320;50.256;19.026;2023-05-20T08:04:17;16.80;99.90
18388;DHT22;9320;50.256;19.026;2023-05-20T08:06:45;17.10;99.90
18388;DHT22;9320;50.256;19.026;2023-05-20T08:09:13;17.40;99.90
18388;DHT22;9320;50.256;19.026;2023-05-20T08:11:41;17.60;99.90
18388;DHT22;9320;50.256;19.026;2023-05-20T08:14:13;17.80;99.90
18388;DHT22;9320;50.256;19.026;2023-05-20T08:16:41;18.00;99.90
18388;DHT22;9320;50.256;19.026;2023-05-20T08:19:10;17.60;99.90
18388;DHT22;9320;50.256;19.026;2023-05-20T08:21:38;17.40;99.90
18388;DHT22;9320;50.256;19.026;2023-05-20T08:24:06;17.50;99.90
18388;DHT22;9320;50.256;19.026;2023-05-20T08:26:34;17.70;99.90
18388;DHT22;9320;50.256;19.026;2023-05-20T08:29:02;17.60;99.90
18388;DHT22;9320;50.256;19.026;2023-05-20T08:31:31;17.60;99.90
18388;DHT22;9320;50.256;19.026;2023-05-20T08:34:00;17.70;99.90
18388;DHT22;9320;50.256;19.026;2023-05-20T08:36:28;17.80;99.90
18388;DHT22;9320;50.256;19.026;2023-05-20T08:38:56;17.90;99.90
18388;DHT22;9320;50.256;19.026;2023-05-20T08:41:24;18.10;99.90
18388;DHT22;9320;50.256;19.026;2023-05-20T08:43:52;18.30;99.90
18388;DHT22;9320;50.256;19.026;2023-05-20T08:46:21;18.70;99.90
18388;DHT22;9320;50.256;19.026;2023-05-20T08:48:51;19.20;99.90
18388;DHT22;9320;50.256;19.026;2023-05-20T08:51:20;19.20;99.90
18388;DHT22;9320;50.256;19.026;2023-05-20T08:53:50;19.00;99.90
18388;DHT22;9320;50.256;19.026;2023-05-20T08:56:19;19.10;99.90
18388;DHT22;9320;50.256;19.026;2023-05-20T08:58:47;19.00;99.90
18388;DHT22;9320;50.256;19.026;2023-05-20T09:01:16;19.20;99.90
18388;DHT22;9320;50.256;19.026;2023-05-20T09:03:44;19.40;99.90
18388;DHT22;9320;50.256;19.026;2023-05-20T09:06:16;19.30;99.90
18388;DHT22;9320;50.256;19.026;2023-05-20T09:08:48;19.30;99.90
18388;DHT22;9320;50.256;19.026;2023-05-20T09:11:16;19.70;99.80
18388;DHT22;9320;50.256;19.026;2023-05-20T09:13:44;19.80;99.90
18388;DHT22;9320;50.256;19.026;2023-05-20T09:16:12;20.10;98.50
18388;DHT22;9320;50.256;19.026;2023-05-20T09:18:40;20.00;98.90
18388;DHT22;9320;50.256;19.026;2023-05-20T09:21:09;20.00;98.80
18388;DHT22;9320;50.256;19.026;2023-05-20T09:23:38;20.10;98.80
18388;DHT22;9320;50.256;19.026;2023-05-20T09:26:07;20.20;97.40
18388;DHT22;9320;50.256;19.026;2023-05-20T09:28:35;20.30;97.80
18388;DHT22;9320;50.256;19.026;2023-05-20T09:31:05;20.40;97.10
18388;DHT22;9320;50.256;19.026;2023-05-20T09:33:36;19.90;97.70
18388;DHT22;9320;50.256;19.026;2023-05-20T09:36:07;19.60;99.10
18388;DHT22;9320;50.256;19.026;2023-05-20T09:38:38;19.50;99.90
18388;DHT22;9320;50.256;19.026;2023-05-20T09:41:07;19.40;99.90
18388;DHT22;9320;50.256;19.026;2023-05-20T09:43:36;19.40;99.90
18388;DHT22;9320;50.256;19.026;2023-05-20T09:46:05;19.60;99.90
18388;DHT22;9320;50.256;19.026;2023-05-20T09:48:35;19.90;98.90
18388;DHT22;9320;50.256;19.026;2023-05-20T09:51:03;19.90;98.60
18388;DHT22;9320;50.256;19.026;2023-05-20T09:53:32;19.90;98.90
18388;DHT22;9320;50.256;19.026;2023-05-20T09:56:02;20.00;98.70
18388;DHT22;9320;50.256;19.026;2023-05-20T09:58:32;20.30;97.20
18388;DHT22;9320;50.256;19.026;2023-05-20T10:01:02;19.80;98.30
18388;DHT22;9320;50.256;19.026;2023-05-20T10:03:31;20.00;98.50
18388;DHT22;9320;50.256;19.026;2023-05-20T10:06:17;20.30;98.20
18388;DHT22;9320;50.256;19.026;2023-05-20T10:11:51;20.40;96.60
18388;DHT22;9320;50.256;19.026;2023-05-20T10:14:37;20.10;96.50
18388;DHT22;9320;50.256;19.026;2023-05-20T10:17:13;20.40;97.60
18388;DHT22;9320;50.256;19.026;2023-05-20T10:19:44;20.90;95.30
18388;DHT22;9320;50.256;19.026;2023-05-20T10:22:12;20.60;94.80
18388;DHT22;9320;50.256;19.026;2023-05-20T10:24:41;20.80;95.10
18388;DHT22;9320;50.256;19.026;2023-05-20T10:27:12;21.30;94.40
18388;DHT22;9320;50.256;19.026;2023-05-20T10:29:43;21.40;93.30
18388;DHT22;9320;50.256;19.026;2023-05-20T10:32:11;21.10;93.80
18388;DHT22;9320;50.256;19.026;2023-05-20T10:34:46;21.20;93.00
18388;DHT22;9320;50.256;19.026;2023-05-20T10:37:26;20.90;93.50
18388;DHT22;9320;50.256;19.026;2023-05-20T10:40:07;21.00;93.80
18388;DHT22;9320;50.256;19.026;2023-05-20T10:42:38;21.10;94.20
18388;DHT22;9320;50.256;19.026;2023-05-20T10:45:07;20.90;94.00
18388;DHT22;9320;50.256;19.026;2023-05-20T10:47:36;21.00;94.00
18388;DHT22;9320;50.256;19.026;2023-05-20T10:50:24;20.90;93.60
18388;DHT22;9320;50.256;19.026;2023-05-20T10:52:53;20.80;94.40
18388;DHT22;9320;50.256;19.026;2023-05-20T10:55:21;20.60;94.70
18388;DHT22;9320;50.256;19.026;2023-05-20T10:57:52;20.50;95.10
18388;DHT22;9320;50.256;19.026;2023-05-20T11:00:20;20.50;95.10
18388;DHT22;9320;50.256;19.026;2023-05-20T11:02:48;20.10;95.90
18388;DHT22;9320;50.256;19.026;2023-05-20T11:05:17;20.30;96.20
18388;DHT22;9320;50.256;19.026;2023-05-20T11:07:45;20.50;96.50
18388;DHT22;9320;50.256;19.026;2023-05-20T11:10:13;20.40;96.10
18388;DHT22;9320;50.256;19.026;2023-05-20T11:12:42;20.50;96.30
18388;DHT22;9320;50.256;19.026;2023-05-20T11:15:12;20.70;95.00
18388;DHT22;9320;50.256;19.026;2023-05-20T11:17:51;20.80;94.60
18388;DHT22;9320;50.256;19.026;2023-05-20T11:20:20;20.60;94.60
18388;DHT22;9320;50.256;19.026;2023-05-20T11:22:48;20.60;95.10
18388;DHT22;9320;50.256;19.026;2023-05-20T11:25:17;20.70;95.50
18388;DHT22;9320;50.256;19.026;2023-05-20T11:27:46;20.90;94.60
18388;DHT22;9320;50.256;19.026;2023-05-20T11:30:15;20.60;95.00
18388;DHT22;9320;50.256;19.026;2023-05-20T11:32:55;20.60;95.00
18388;DHT22;9320;50.256;19.026;2023-05-20T11:35:25;20.80;94.80
18388;DHT22;9320;50.256;19.026;2023-05-20T11:37:55;21.00;94.30
18388;DHT22;9320;50.256;19.026;2023-05-20T11:40:24;21.00;94.20
18388;DHT22;9320;50.256;19.026;2023-05-20T11:43:04;21.10;94.10
18388;DHT22;9320;50.256;19.026;2023-05-20T11:45:40;21.50;94.00
18388;DHT22;9320;50.256;19.026;2023-05-20T11:48:09;21.60;93.30
18388;DHT22;9320;50.256;19.026;2023-05-20T11:50:39;21.70;93.20
18388;DHT22;9320;50.256;19.026;2023-05-20T11:53:09;21.60;93.50
18388;DHT22;9320;50.256;19.026;2023-05-20T11:55:44;21.60;93.30
18388;DHT22;9320;50.256;19.026;2023-05-20T11:58:15;21.70;93.40
18388;DHT22;9320;50.256;19.026;2023-05-20T12:00:45;21.30;93.70
18388;DHT22;9320;50.256;19.026;2023-05-20T12:03:22;21.00;94.30
18388;DHT22;9320;50.256;19.026;2023-05-20T12:05:51;20.80;94.90
18388;DHT22;9320;50.256;19.026;2023-05-20T12:08:19;20.60;95.30
18388;DHT22;9320;50.256;19.026;2023-05-20T12:10:48;20.60;95.80
18388;DHT22;9320;50.256;19.026;2023-05-20T12:13:16;20.50;95.80
18388;DHT22;9320;50.256;19.026;2023-05-20T12:15:46;20.50;96.20
18388;DHT22;9320;50.256;19.026;2023-05-20T12:18:14;20.70;95.80
18388;DHT22;9320;50.256;19.026;2023-05-20T12:20:42;20.60;95.80
18388;DHT22;9320;50.256;19.026;2023-05-20T12:23:10;20.50;96.00
18388;DHT22;9320;50.256;19.026;2023-05-20T12:25:38;20.60;96.60
18388;DHT22;9320;50.256;19.026;2023-05-20T12:28:06;20.80;95.90
18388;DHT22;9320;50.256;19.026;2023-05-20T12:30:34;20.70;95.80
18388;DHT22;9320;50.256;19.026;2023-05-20T12:33:04;20.30;96.10
18388;DHT22;9320;50.256;19.026;2023-05-20T12:35:37;20.40;96.90
18388;DHT22;9320;50.256;19.026;2023-05-20T12:38:05;20.40;97.00
18388;DHT22;9320;50.256;19.026;2023-05-20T12:40:34;20.50;97.10
18388;DHT22;9320;50.256;19.026;2023-05-20T12:43:03;20.50;97.10
18388;DHT22;9320;50.256;19.026;2023-05-20T12:45:32;20.60;96.70
18388;DHT22;9320;50.256;19.026;2023-05-20T12:48:00;20.60;96.30
18388;DHT22;9320;50.256;19.026;2023-05-20T12:50:30;20.60;96.50
18388;DHT22;9320;50.256;19.026;2023-05-20T12:52:58;20.70;96.20
18388;DHT22;9320;50.256;19.026;2023-05-20T12:55:26;20.90;95.70
18388;DHT22;9320;50.256;19.026;2023-05-20T12:57:54;21.00;95.00
18388;DHT22;9320;50.256;19.026;2023-05-20T13:00:22;21.00;95.10
18388;DHT22;9320;50.256;19.026;2023-05-20T13:02:50;21.10;95.20
18388;DHT22;9320;50.256;19.026;2023-05-20T13:05:21;21.30;95.10
18388;DHT22;9320;50.256;19.026;2023-05-20T13:07:51;21.30;95.40
18388;DHT22;9320;50.256;19.026;2023-05-20T13:10:19;21.30;95.00
18388;DHT22;9320;50.256;19.026;2023-05-20T13:12:47;21.20;94.90
18388;DHT22;9320;50.256;19.026;2023-05-20T13:15:15;21.30;94.70
18388;DHT22;9320;50.256;19.026;2023-05-20T13:17:43;21.30;94.40
18388;DHT22;9320;50.256;19.026;2023-05-20T13:20:12;21.50;94.20
18388;DHT22;9320;50.256;19.026;2023-05-20T13:22:40;21.70;93.80
18388;DHT22;9320;50.256;19.026;2023-05-20T13:25:09;21.80;93.50
18388;DHT22;9320;50.256;19.026;2023-05-20T13:27:38;21.90;93.50
18388;DHT22;9320;50.256;19.026;2023-05-20T13:30:07;21.70;93.20
18388;DHT22;9320;50.256;19.026;2023-05-20T13:32:35;21.80;93.20
18388;DHT22;9320;50.256;19.026;2023-05-20T13:35:04;21.70;92.40
18388;DHT22;9320;50.256;19.026;2023-05-20T13:37:32;21.90;92.40
18388;DHT22;9320;50.256;19.026;2023-05-20T13:40:00;22.00;92.40
18388;DHT22;9320;50.256;19.026;2023-05-20T13:42:30;21.90;92.60
18388;DHT22;9320;50.256;19.026;2023-05-20T13:44:58;21.80;92.70
18388;DHT22;9320;50.256;19.026;2023-05-20T13:47:26;21.60;92.90
18388;DHT22;9320;50.256;19.026;2023-05-20T13:49:54;21.50;93.10
18388;DHT22;9320;50.256;19.026;2023-05-20T13:52:22;21.50;93.20
18388;DHT22;9320;50.256;19.026;2023-05-20T13:54:50;21.60;93.30
18388;DHT22;9320;50.256;19.026;2023-05-20T13:57:19;21.60;93.30
18388;DHT22;9320;50.256;19.026;2023-05-20T13:59:48;21.80;93.40
18388;DHT22;9320;50.256;19.026;2023-05-20T14:02:17;21.90;92.90
18388;DHT22;9320;50.256;19.026;2023-05-20T14:04:45;22.00;92.50
18388;DHT22;9320;50.256;19.026;2023-05-20T14:07:13;22.10;91.80
18388;DHT22;9320;50.256;19.026;2023-05-20T14:09:41;22.00;91.30
18388;DHT22;9320;50.256;19.026;2023-05-20T14:12:09;22.10;91.40
18388;DHT22;9320;50.256;19.026;2023-05-20T14:14:37;22.30;91.20
18388;DHT22;9320;50.256;19.026;2023-05-20T14:17:07;22.30;91.30
18388;DHT22;9320;50.256;19.026;2023-05-20T14:19:35;22.30;91.40
18388;DHT22;9320;50.256;19.026;2023-05-20T14:22:04;22.20;90.70
18388;DHT22;9320;50.256;19.026;2023-05-20T14:24:32;22.30;90.40
18388;DHT22;9320;50.256;19.026;2023-05-20T14:27:00;22.20;90.50
18388;DHT22;9320;50.256;19.026;2023-05-20T14:29:28;22.30;90.40
18388;DHT22;9320;50.256;19.026;2023-05-20T14:31:56;22.40;90.40
18388;DHT22;9320;50.256;19.026;2023-05-20T14:34:25;22.40;90.40
18388;DHT22;9320;50.256;19.026;2023-05-20T14:36:53;22.30;90.30
18388;DHT22;9320;50.256;19.026;2023-05-20T14:39:22;22.30;90.00
18388;DHT22;9320;50.256;19.026;2023-05-20T14:41:50;22.40;90.10
18388;DHT22;9320;50.256;19.026;2023-05-20T14:44:18;22.40;90.10
18388;DHT22;9320;50.256;19.026;2023-05-20T14:46:46;22.30;89.10
18388;DHT22;9320;50.256;19.026;2023-05-20T14:49:14;22.40;89.20
18388;DHT22;9320;50.256;19.026;2023-05-20T14:51:44;22.40;89.30
18388;DHT22;9320;50.256;19.026;2023-05-20T14:54:12;22.40;89.20
18388;DHT22;9320;50.256;19.026;2023-05-20T14:56:41;22.50;88.90
18388;DHT22;9320;50.256;19.026;2023-05-20T14:59:09;22.90;88.70
18388;DHT22;9320;50.256;19.026;2023-05-20T15:01:37;23.20;87.50
18388;DHT22;9320;50.256;19.026;2023-05-20T15:04:05;23.30;85.30
18388;DHT22;9320;50.256;19.026;2023-05-20T15:06:33;23.20;84.40
18388;DHT22;9320;50.256;19.026;2023-05-20T15:09:04;22.90;84.30
18388;DHT22;9320;50.256;19.026;2023-05-20T15:11:32;22.80;85.50
18388;DHT22;9320;50.256;19.026;2023-05-20T15:14:00;22.60;86.60
18388;DHT22;9320;50.256;19.026;2023-05-20T15:16:28;22.40;87.20
18388;DHT22;9320;50.256;19.026;2023-05-20T15:18:56;22.40;87.90
18388;DHT22;9320;50.256;19.026;2023-05-20T15:21:24;22.40;88.00
18388;DHT22;9320;50.256;19.026;2023-05-20T15:23:52;22.50;87.20
18388;DHT22;9320;50.256;19.026;2023-05-20T15:26:22;22.60;86.60
18388;DHT22;9320;50.256;19.026;2023-05-20T15:28:50;22.60;86.10
18388;DHT22;9320;50.256;19.026;2023-05-20T15:31:18;22.70;86.30
18388;DHT22;9320;50.256;19.026;2023-05-20T15:33:46;22.70;87.00
18388;DHT22;9320;50.256;19.026;2023-05-20T15:36:14;22.70;87.40
18388;DHT22;9320;50.256;19.026;2023-05-20T15:38:42;22.60;87.30
18388;DHT22;9320;50.256;19.026;2023-05-20T15:41:11;22.60;87.50
18388;DHT22;9320;50.256;19.026;2023-05-20T15:43:41;22.70;87.80